Time;durP1;ratioP1;P1;durP2;ratioP2;P2;SDS_P1;SDS_P2;PMS_P1;PMS_P2;Temp;Humidity;BMP_temperature;BMP_pressure;BME280_temperature;BME280_humidity;BME280_pressure;Samples;Min_cycle;Max_cycle;Signal;HPM_P1;HPM_P2
2022/11/06 00:00:32;;;;;;;5.50;5.10;;;21.40;63.30;;;;;;5061569;28;20484;-79
2022/11/06 00:03:01;;;;;;;4.97;4.60;;;21.40;63.40;;;;;;5064029;28;20465;-78
2022/11/06 00:08:30;;;;;;;6.03;5.53;;;21.40;63.40;;;;;;5060033;28;20461;-79
2022/11/06 00:10:58;;;;;;;4.90;4.60;;;21.40;63.40;;;;;;5062394;28;20463;-79
2022/11/06 00:13:27;;;;;;;6.47;5.00;;;21.40;63.40;;;;;;5060298;28;20468;-79
2022/11/06 00:15:55;;;;;;;5.27;4.80;;;21.40;63.40;;;;;;5061373;28;20465;-79
2022/11/06 00:18:26;;;;;;;6.47;5.77;;;21.40;63.30;;;;;;5058817;28;20462;-79
2022/11/06 00:20:54;;;;;;;5.47;4.97;;;21.40;63.40;;;;;;5063594;28;20482;-79
2022/11/06 00:23:24;;;;;;;5.43;4.93;;;21.40;63.30;;;;;;5064625;28;20464;-80
2022/11/06 00:25:55;;;;;;;4.97;4.60;;;21.40;63.30;;;;;;5059598;28;20462;-79
2022/11/06 00:28:23;;;;;;;5.50;5.00;;;21.40;63.20;;;;;;5066406;28;20815;-79
2022/11/06 00:30:51;;;;;;;5.90;5.47;;;21.40;63.30;;;;;;5062323;28;20517;-79
2022/11/06 00:33:19;;;;;;;5.83;5.43;;;21.40;63.20;;;;;;5077162;28;20457;-79
2022/11/06 00:35:47;;;;;;;5.83;5.23;;;21.40;63.20;;;;;;5072878;28;20474;-79
2022/11/06 00:38:15;;;;;;;5.00;4.70;;;21.40;63.30;;;;;;5057966;28;20486;-79
2022/11/06 00:40:45;;;;;;;5.67;5.17;;;21.40;63.30;;;;;;5094691;28;20471;-79
2022/11/06 00:43:13;;;;;;;5.10;4.70;;;21.40;63.30;;;;;;5090099;28;20465;-79
2022/11/06 00:45:41;;;;;;;5.77;5.27;;;21.40;63.30;;;;;;5074799;28;20457;-79
2022/11/06 00:48:09;;;;;;;5.23;4.83;;;21.40;63.20;;;;;;5072100;28;20451;-80
2022/11/06 00:50:38;;;;;;;4.67;4.37;;;21.40;63.20;;;;;;5095004;28;20455;-79
2022/11/06 00:53:06;;;;;;;5.87;5.40;;;21.40;63.30;;;;;;5078841;28;20464;-79
2022/11/06 00:55:34;;;;;;;4.83;4.40;;;21.40;63.20;;;;;;5069687;28;20453;-81
2022/11/06 00:58:03;;;;;;;4.70;4.40;;;21.40;63.20;;;;;;5079042;28;20801;-79
2022/11/06 01:00:31;;;;;;;4.30;4.00;;;21.40;63.10;;;;;;5074220;28;20473;-79
2022/11/06 01:02:59;;;;;;;4.80;4.40;;;21.40;63.10;;;;;;5069540;28;20468;-79
2022/11/06 01:05:28;;;;;;;5.40;5.00;;;21.40;63.20;;;;;;5085001;28;20457;-79
2022/11/06 01:07:56;;;;;;;5.40;5.00;;;21.40;63.20;;;;;;5081959;28;20840;-80
2022/11/06 01:10:24;;;;;;;5.37;4.90;;;21.40;63.20;;;;;;5086557;28;20452;-79
2022/11/06 01:12:52;;;;;;;5.07;4.67;;;21.40;63.20;;;;;;5078873;28;20458;-79
2022/11/06 01:15:21;;;;;;;5.57;5.07;;;21.40;63.10;;;;;;5094153;28;20996;-79
2022/11/06 01:17:49;;;;;;;5.30;4.83;;;21.40;63.10;;;;;;5070330;28;20834;-79
2022/11/06 01:20:18;;;;;;;5.60;5.20;;;21.40;63.20;;;;;;5072959;28;20990;-79
2022/11/06 01:22:46;;;;;;;5.50;5.00;;;21.40;63.20;;;;;;5079975;28;20966;-79
2022/11/06 01:25:14;;;;;;;5.03;4.57;;;21.40;63.10;;;;;;5065360;28;20454;-79
2022/11/06 01:27:42;;;;;;;5.10;4.70;;;21.40;63.20;;;;;;5069678;28;20472;-79
2022/11/06 01:30:11;;;;;;;4.90;4.60;;;21.40;63.10;;;;;;5069804;28;20460;-79
2022/11/06 01:32:41;;;;;;;5.10;4.70;;;21.30;63.10;;;;;;5075527;28;20461;-80
2022/11/06 01:35:09;;;;;;;4.70;4.30;;;21.30;63.20;;;;;;5071403;28;20453;-79
2022/11/06 01:37:37;;;;;;;4.90;4.50;;;21.30;63.10;;;;;;5090310;28;20503;-79
2022/11/06 01:40:06;;;;;;;5.10;4.70;;;21.30;63.10;;;;;;5093443;28;20534;-79
2022/11/06 01:42:34;;;;;;;5.10;4.70;;;21.30;63.10;;;;;;5093850;28;20452;-79
2022/11/06 01:45:24;;;;;;;5.73;5.30;;;21.30;63.10;;;;;;5088795;28;20463;-79
2022/11/06 01:47:54;;;;;;;5.10;4.70;;;21.30;63.10;;;;;;5093748;28;20432;-79
2022/11/06 01:50:22;;;;;;;4.70;4.30;;;21.30;63.10;;;;;;5084037;28;20456;-79
2022/11/06 01:52:51;;;;;;;4.60;4.20;;;21.30;63.10;;;;;;5081132;28;20962;-79
2022/11/06 01:55:23;;;;;;;5.13;4.73;;;21.30;63.10;;;;;;5072854;28;20453;-78
2022/11/06 01:57:52;;;;;;;4.90;4.50;;;21.30;63.00;;;;;;5059024;28;20447;-79
2022/11/06 02:00:20;;;;;;;4.57;4.17;;;21.30;63.00;;;;;;5053806;28;20483;-80
2022/11/06 02:02:49;;;;;;;4.33;4.03;;;21.30;63.00;;;;;;5088859;28;20526;-79
2022/11/06 02:05:19;;;;;;;5.07;4.57;;;21.30;63.00;;;;;;5073924;28;20533;-79
2022/11/06 02:07:48;;;;;;;4.53;4.13;;;21.30;63.10;;;;;;5083513;28;20937;-79
2022/11/06 02:10:16;;;;;;;5.00;4.67;;;21.30;63.00;;;;;;5073205;28;20428;-79
2022/11/06 02:12:52;;;;;;;4.70;4.40;;;21.30;63.10;;;;;;5073164;28;20436;-80
2022/11/06 02:15:29;;;;;;;4.80;4.40;;;21.30;63.10;;;;;;5070569;28;20790;-79
2022/11/06 02:18:29;;;;;;;4.97;4.57;;;21.30;63.10;;;;;;5079472;28;20450;-78
2022/11/06 02:21:30;;;;;;;5.20;4.50;;;21.30;63.10;;;;;;5089014;28;20487;-78
2022/11/06 02:24:25;;;;;;;4.63;4.23;;;21.30;63.10;;;;;;5086758;28;20472;-79
2022/11/06 02:27:04;;;;;;;5.93;5.50;;;21.30;63.10;;;;;;5069117;28;20973;-79
2022/11/06 02:29:36;;;;;;;4.80;4.40;;;21.30;63.10;;;;;;5093074;28;20442;-79
2022/11/06 02:32:10;;;;;;;6.03;4.67;;;21.30;63.10;;;;;;5089397;28;20464;-79
2022/11/06 02:34:41;;;;;;;5.03;4.63;;;21.30;63.10;;;;;;5092551;28;20455;-79
2022/11/06 02:37:15;;;;;;;5.03;4.63;;;21.30;63.10;;;;;;5080524;28;20813;-78
2022/11/06 02:39:45;;;;;;;4.80;4.40;;;21.30;63.10;;;;;;5090457;28;20447;-78
2022/11/06 02:42:18;;;;;;;4.73;4.30;;;21.30;63.00;;;;;;5071850;28;20473;-79
2022/11/06 02:44:50;;;;;;;4.97;4.67;;;21.30;63.10;;;;;;5072687;28;20449;-79
2022/11/06 02:47:19;;;;;;;4.50;4.20;;;21.30;63.00;;;;;;5072785;28;20424;-78
2022/11/06 02:49:51;;;;;;;4.60;4.20;;;21.30;63.00;;;;;;5072089;28;20447;-78
2022/11/06 02:52:23;;;;;;;4.67;4.27;;;21.30;63.00;;;;;;5072501;28;20434;-79
2022/11/06 02:54:58;;;;;;;4.27;3.87;;;21.30;63.00;;;;;;5059875;28;20467;-79
2022/11/06 02:57:34;;;;;;;5.20;4.80;;;21.30;63.00;;;;;;5092977;28;20446;-78
2022/11/06 03:00:06;;;;;;;3.97;3.67;;;21.30;62.90;;;;;;5092084;28;20775;-78
2022/11/06 03:02:39;;;;;;;4.60;4.30;;;21.30;63.00;;;;;;5092438;28;20994;-78
2022/11/06 03:05:12;;;;;;;4.13;3.83;;;21.30;63.00;;;;;;5091943;28;20818;-78
2022/11/06 03:07:47;;;;;;;4.20;3.90;;;21.30;63.00;;;;;;5092602;28;20431;-79
2022/11/06 03:10:16;;;;;;;3.90;3.70;;;21.30;63.00;;;;;;5083866;28;20931;-79
2022/11/06 03:12:56;;;;;;;4.73;4.33;;;21.30;63.00;;;;;;5072654;28;20448;-78
2022/11/06 03:15:33;;;;;;;3.97;3.70;;;21.30;63.00;;;;;;5082640;28;20440;-79
2022/11/06 03:18:09;;;;;;;4.90;4.50;;;21.30;63.00;;;;;;5066778;28;20452;-78
2022/11/06 03:20:43;;;;;;;5.80;4.03;;;21.20;63.00;;;;;;5071693;28;20469;-78
2022/11/06 03:23:16;;;;;;;4.10;3.80;;;21.30;63.00;;;;;;5086328;28;20456;-79
2022/11/06 03:25:49;;;;;;;4.70;4.30;;;21.20;63.00;;;;;;5063079;28;20453;-79
2022/11/06 03:28:27;;;;;;;3.60;3.40;;;21.30;63.00;;;;;;5072130;28;20829;-78
2022/11/06 03:30:59;;;;;;;4.40;4.10;;;21.30;63.00;;;;;;5072056;28;20452;-78
2022/11/06 03:33:33;;;;;;;4.27;3.93;;;21.30;63.00;;;;;;5071293;28;20455;-78
2022/11/06 03:36:05;;;;;;;3.77;3.53;;;21.30;63.00;;;;;;5053761;28;20498;-79
2022/11/06 03:38:37;;;;;;;4.37;4.00;;;21.20;62.90;;;;;;5074519;28;20962;-78
2022/11/06 03:41:14;;;;;;;4.47;4.17;;;21.30;62.90;;;;;;5092061;28;20841;-78
2022/11/06 03:43:45;;;;;;;4.73;4.10;;;21.20;63.00;;;;;;5068631;28;20471;-78
2022/11/06 03:46:18;;;;;;;3.97;3.67;;;21.20;62.90;;;;;;5070685;28;20527;-78
2022/11/06 03:48:50;;;;;;;3.80;3.53;;;21.20;62.90;;;;;;5089552;28;20439;-78
2022/11/06 03:51:22;;;;;;;4.53;4.23;;;21.20;62.90;;;;;;5091622;28;20876;-78
2022/11/06 03:53:52;;;;;;;4.20;3.90;;;21.20;62.90;;;;;;5082407;28;20940;-78
2022/11/06 03:56:25;;;;;;;4.30;4.00;;;21.20;62.90;;;;;;5069570;28;20521;-78
2022/11/06 03:58:55;;;;;;;5.53;5.03;;;21.20;62.90;;;;;;5089329;28;20440;-78
2022/11/06 04:01:28;;;;;;;4.30;3.90;;;21.20;62.90;;;;;;5089097;28;20468;-78
2022/11/06 04:04:01;;;;;;;4.43;4.03;;;21.20;62.90;;;;;;5070517;28;20988;-79
2022/11/06 04:06:35;;;;;;;3.93;3.67;;;21.20;62.90;;;;;;5083382;28;20453;-79
2022/11/06 04:14:42;;;;;;;4.37;4.07;;;21.20;62.90;;;;;;5071508;28;20432;-80
2022/11/06 04:17:13;;;;;;;4.37;4.07;;;21.20;62.90;;;;;;5053941;28;21058;-80
2022/11/06 04:19:46;;;;;;;4.27;3.97;;;21.20;62.90;;;;;;5071033;28;20438;-79
2022/11/06 04:22:29;;;;;;;3.60;3.30;;;21.20;62.90;;;;;;5085044;28;20476;-78
2022/11/06 04:28:08;;;;;;;3.87;3.40;;;21.20;62.90;;;;;;5051632;28;20429;-78
2022/11/06 04:30:46;;;;;;;3.90;3.60;;;21.20;62.90;;;;;;5053039;28;20494;-78
2022/11/06 04:33:21;;;;;;;5.20;3.60;;;21.20;63.00;;;;;;5070781;28;20420;-78
2022/11/06 04:36:01;;;;;;;5.17;4.00;;;21.20;62.90;;;;;;5062377;28;20488;-78
2022/11/06 04:38:39;;;;;;;3.97;3.57;;;21.20;62.90;;;;;;5051202;28;20473;-78
2022/11/06 04:41:15;;;;;;;4.00;3.60;;;21.20;62.90;;;;;;5070386;28;20832;-78
2022/11/06 04:43:47;;;;;;;3.57;3.30;;;21.20;62.90;;;;;;5073668;28;20433;-78
2022/11/06 04:46:21;;;;;;;4.07;3.27;;;21.20;62.90;;;;;;5074366;28;20444;-79
2022/11/06 04:48:50;;;;;;;4.10;3.60;;;21.20;62.90;;;;;;5074396;28;20433;-78
2022/11/06 04:51:22;;;;;;;3.80;3.50;;;21.20;62.90;;;;;;5091050;28;20435;-79
2022/11/06 04:53:52;;;;;;;4.40;4.10;;;21.10;62.90;;;;;;5086043;28;20458;-78
2022/11/06 04:56:25;;;;;;;3.20;3.00;;;21.20;62.90;;;;;;5088267;28;20447;-78
2022/11/06 04:58:56;;;;;;;3.87;3.60;;;21.10;62.90;;;;;;5082289;28;20870;-81
2022/11/06 05:01:26;;;;;;;3.80;3.43;;;21.10;62.90;;;;;;5083081;28;20563;-79
2022/11/06 05:03:55;;;;;;;3.60;3.30;;;21.20;62.90;;;;;;5073909;28;20459;-78
2022/11/06 05:06:23;;;;;;;3.70;3.40;;;21.10;62.90;;;;;;5073027;28;20807;-78
2022/11/06 05:08:57;;;;;;;3.33;3.07;;;21.10;62.90;;;;;;5094819;28;20441;-80
2022/11/06 05:11:26;;;;;;;3.60;3.30;;;21.10;63.00;;;;;;5094374;28;20461;-78
2022/11/06 05:13:54;;;;;;;3.50;3.30;;;21.10;62.90;;;;;;5094634;28;20973;-79
2022/11/06 05:16:22;;;;;;;3.63;3.33;;;21.10;62.90;;;;;;5094313;28;20435;-79
2022/11/06 05:18:51;;;;;;;3.10;2.90;;;21.10;62.80;;;;;;5084489;28;20551;-78
2022/11/06 05:24:06;;;;;;;3.40;3.20;;;21.10;62.90;;;;;;5065625;28;20457;-78
2022/11/06 05:26:34;;;;;;;3.20;3.00;;;21.10;63.00;;;;;;5070983;28;20810;-78
2022/11/06 05:29:03;;;;;;;4.80;3.63;;;21.10;62.90;;;;;;5074495;28;20421;-79
2022/11/06 05:31:31;;;;;;;4.13;3.83;;;21.10;63.10;;;;;;5072275;28;20504;-79
2022/11/06 05:34:01;;;;;;;3.20;3.00;;;21.10;63.10;;;;;;5073608;28;20460;-78
2022/11/06 05:36:29;;;;;;;2.80;2.60;;;21.10;63.10;;;;;;5092438;28;20479;-78
2022/11/06 05:38:57;;;;;;;3.07;2.87;;;21.10;63.30;;;;;;5090540;28;20477;-78
2022/11/06 05:41:25;;;;;;;3.57;3.27;;;21.10;63.40;;;;;;5076438;28;20937;-78
2022/11/06 05:43:53;;;;;;;3.90;3.60;;;21.10;63.50;;;;;;5083734;28;20466;-78
2022/11/06 05:46:21;;;;;;;4.23;3.03;;;21.10;63.60;;;;;;5078598;28;20452;-79
2022/11/06 05:49:11;;;;;;;3.67;3.37;;;21.10;63.60;;;;;;5082376;28;20483;-78
2022/11/06 05:51:39;;;;;;;3.07;2.87;;;21.10;63.70;;;;;;5074937;28;20469;-79
2022/11/06 05:54:07;;;;;;;2.87;2.77;;;21.10;63.70;;;;;;5083497;28;20455;-78
2022/11/06 05:56:35;;;;;;;3.30;3.00;;;21.10;63.80;;;;;;5092502;28;20436;-78
2022/11/06 05:59:03;;;;;;;3.07;2.87;;;21.10;63.80;;;;;;5073565;28;20445;-79
2022/11/06 06:01:31;;;;;;;3.60;3.30;;;21.10;63.80;;;;;;5072420;28;20942;-78
2022/11/06 06:04:00;;;;;;;3.10;2.90;;;21.10;63.80;;;;;;5093254;28;20452;-78
2022/11/06 06:06:29;;;;;;;3.20;3.00;;;21.10;63.80;;;;;;5093572;28;20426;-78
2022/11/06 06:08:57;;;;;;;3.17;2.87;;;21.10;63.90;;;;;;5082159;28;20456;-78
2022/11/06 06:11:25;;;;;;;2.90;2.70;;;21.10;63.90;;;;;;5072385;28;20473;-81
2022/11/06 06:13:53;;;;;;;3.20;3.00;;;21.10;63.90;;;;;;5072385;28;20450;-78
2022/11/06 06:16:21;;;;;;;3.10;2.90;;;21.10;63.90;;;;;;5072047;28;20463;-79
2022/11/06 06:18:50;;;;;;;3.50;3.17;;;21.10;63.90;;;;;;5084421;28;20473;-78
2022/11/06 06:21:18;;;;;;;2.80;2.60;;;21.10;63.90;;;;;;5078207;28;20456;-78
2022/11/06 06:23:48;;;;;;;2.90;2.70;;;21.10;63.90;;;;;;5093136;28;20464;-79
2022/11/06 06:26:17;;;;;;;3.10;2.90;;;21.10;63.90;;;;;;5093669;28;20439;-79
2022/11/06 06:28:47;;;;;;;3.10;2.90;;;21.10;64.00;;;;;;5093193;28;20428;-79
2022/11/06 06:31:15;;;;;;;2.60;2.40;;;21.10;64.00;;;;;;5093123;28;20895;-79
2022/11/06 06:33:43;;;;;;;3.00;2.60;;;21.10;64.00;;;;;;5083061;28;20481;-79
2022/11/06 06:36:11;;;;;;;3.40;3.10;;;21.10;63.90;;;;;;5072382;28;20690;-78
2022/11/06 06:38:40;;;;;;;2.67;2.47;;;21.10;64.00;;;;;;5072331;28;20473;-78
2022/11/06 06:41:09;;;;;;;2.47;2.30;;;21.10;63.90;;;;;;5080683;28;20463;-78
2022/11/06 06:43:37;;;;;;;2.10;2.00;;;21.10;64.00;;;;;;5087229;28;20472;-78
2022/11/06 06:46:06;;;;;;;3.13;2.93;;;21.10;64.00;;;;;;5083660;28;20502;-78
2022/11/06 06:48:35;;;;;;;2.90;2.70;;;21.10;64.00;;;;;;5072529;28;20432;-79
2022/11/06 06:51:04;;;;;;;3.60;3.30;;;21.10;64.00;;;;;;5064847;28;20456;-78
2022/11/06 06:53:32;;;;;;;2.90;2.70;;;21.10;63.90;;;;;;5072174;28;20449;-79
2022/11/06 06:56:00;;;;;;;2.70;2.50;;;21.10;64.00;;;;;;5072549;28;20453;-78
2022/11/06 06:58:30;;;;;;;3.93;2.53;;;21.10;64.00;;;;;;5072318;28;20434;-78
2022/11/06 07:01:00;;;;;;;2.80;2.60;;;21.10;64.00;;;;;;5072752;28;20475;-78
2022/11/06 07:03:29;;;;;;;3.40;2.90;;;21.10;64.00;;;;;;5088232;28;20472;-78
2022/11/06 07:05:58;;;;;;;2.47;2.37;;;21.10;64.00;;;;;;5092094;28;20424;-78
2022/11/06 07:08:26;;;;;;;3.10;2.90;;;21.10;64.00;;;;;;5091280;28;20420;-80
2022/11/06 07:10:59;;;;;;;2.67;2.47;;;21.10;64.00;;;;;;5072067;28;20467;-79
2022/11/06 07:13:28;;;;;;;2.60;2.40;;;21.10;64.10;;;;;;5071575;28;20527;-79
2022/11/06 07:16:03;;;;;;;2.27;2.17;;;21.10;64.00;;;;;;5059952;28;20539;-79
2022/11/06 07:18:31;;;;;;;2.57;2.37;;;21.10;64.00;;;;;;5071411;28;20535;-78
2022/11/06 07:20:59;;;;;;;2.90;2.70;;;21.10;64.00;;;;;;5069272;28;20466;-78
2022/11/06 07:23:28;;;;;;;2.90;2.70;;;21.10;64.00;;;;;;5070903;28;20475;-78
2022/11/06 07:25:56;;;;;;;2.50;2.30;;;21.10;63.90;;;;;;5077498;28;20440;-78
2022/11/06 07:28:24;;;;;;;2.47;2.30;;;21.10;63.90;;;;;;5073808;28;20453;-79
2022/11/06 07:30:57;;;;;;;3.20;3.00;;;21.10;63.90;;;;;;5067593;28;20475;-79
2022/11/06 07:33:25;;;;;;;2.90;2.70;;;21.10;63.90;;;;;;5069171;28;20452;-79
2022/11/06 07:35:53;;;;;;;2.80;2.60;;;21.10;63.90;;;;;;5079428;28;20501;-79
2022/11/06 07:38:22;;;;;;;3.07;2.03;;;21.20;64.00;;;;;;5084670;28;20524;-78
2022/11/06 07:40:50;;;;;;;2.63;2.53;;;21.20;63.90;;;;;;5084676;28;20456;-79
2022/11/06 07:43:18;;;;;;;2.53;2.33;;;21.20;63.90;;;;;;5083778;28;20473;-79
2022/11/06 07:45:46;;;;;;;2.50;2.40;;;21.20;63.90;;;;;;5083379;28;20462;-79
2022/11/06 07:48:15;;;;;;;2.60;2.40;;;21.20;64.00;;;;;;5059641;28;20468;-79
2022/11/06 07:50:44;;;;;;;2.30;2.10;;;21.20;63.90;;;;;;5071526;28;20967;-80
2022/11/06 07:53:12;;;;;;;2.80;2.27;;;21.20;63.90;;;;;;5062577;28;20455;-78
2022/11/06 07:55:47;;;;;;;2.37;2.17;;;21.20;63.90;;;;;;5072080;28;20780;-78
2022/11/06 07:58:15;;;;;;;2.07;1.97;;;21.20;63.90;;;;;;5064573;28;20814;-79
2022/11/06 08:00:47;;;;;;;2.47;2.37;;;21.20;64.00;;;;;;5064886;28;20453;-80
2022/11/06 08:03:16;;;;;;;3.00;2.17;;;21.20;64.60;;;;;;5071382;28;20821;-80
2022/11/06 08:05:45;;;;;;;2.87;2.30;;;21.20;64.60;;;;;;5070709;28;20503;-79
2022/11/06 08:08:13;;;;;;;1.93;1.83;;;21.20;64.70;;;;;;5068530;28;20811;-79
2022/11/06 08:10:43;;;;;;;2.47;2.17;;;21.20;64.60;;;;;;5066949;28;20501;-80
2022/11/06 08:13:12;;;;;;;2.70;2.50;;;21.20;64.60;;;;;;5065114;28;20457;-79
2022/11/06 08:15:42;;;;;;;2.43;2.30;;;21.20;64.70;;;;;;5073576;28;20468;-79
2022/11/06 08:18:11;;;;;;;2.67;2.47;;;21.20;64.70;;;;;;5067398;28;20465;-80
2022/11/06 08:20:42;;;;;;;2.30;2.20;;;21.30;64.60;;;;;;5075189;28;20526;-79
2022/11/06 08:23:12;;;;;;;2.30;2.10;;;21.20;64.60;;;;;;5072770;28;20473;-79
2022/11/06 08:25:40;;;;;;;2.20;2.10;;;21.30;64.60;;;;;;5074150;28;20454;-79
2022/11/06 08:28:09;;;;;;;2.23;2.13;;;21.30;64.60;;;;;;5068485;28;20490;-79
2022/11/06 08:30:38;;;;;;;2.17;2.07;;;21.30;64.60;;;;;;5070703;28;20531;-79
2022/11/06 08:33:08;;;;;;;2.63;2.40;;;21.30;64.50;;;;;;5074148;28;20442;-79
2022/11/06 08:35:36;;;;;;;2.60;2.37;;;21.30;64.50;;;;;;5069112;28;20499;-79
2022/11/06 08:38:06;;;;;;;3.30;1.93;;;21.30;64.50;;;;;;5070149;28;20464;-79
2022/11/06 08:40:36;;;;;;;3.27;2.43;;;21.30;64.50;;;;;;5077700;28;20455;-79
2022/11/06 08:43:06;;;;;;;3.17;2.10;;;21.30;64.50;;;;;;5086639;28;20467;-79
2022/11/06 08:45:37;;;;;;;2.13;2.03;;;21.30;64.40;;;;;;5067975;28;20472;-79
2022/11/06 08:48:06;;;;;;;2.70;2.43;;;21.30;64.50;;;;;;5068810;28;20461;-79
2022/11/06 08:50:36;;;;;;;2.00;1.90;;;21.40;64.70;;;;;;5069927;28;20456;-79
2022/11/06 08:53:06;;;;;;;1.60;1.43;;;21.40;64.80;;;;;;5061514;28;20456;-79
2022/11/06 08:55:37;;;;;;;2.50;2.30;;;21.40;64.80;;;;;;5065146;28;20515;-79
2022/11/06 08:58:09;;;;;;;2.03;1.93;;;21.30;64.70;;;;;;5065972;28;20830;-80
2022/11/06 09:00:37;;;;;;;2.10;1.90;;;21.30;64.70;;;;;;5063341;28;20975;-79
2022/11/06 09:03:12;;;;;;;2.53;2.33;;;21.30;64.70;;;;;;5063600;28;20825;-80
2022/11/06 09:05:42;;;;;;;3.20;2.10;;;21.30;64.80;;;;;;5062244;28;20457;-80
2022/11/06 09:08:12;;;;;;;1.87;1.70;;;21.30;64.80;;;;;;5073956;28;20453;-79
2022/11/06 09:10:41;;;;;;;2.20;2.10;;;21.30;64.80;;;;;;5087571;28;20455;-79
2022/11/06 09:13:10;;;;;;;3.00;2.37;;;21.20;64.90;;;;;;5063621;28;20947;-79
2022/11/06 09:15:39;;;;;;;2.30;2.20;;;21.20;64.90;;;;;;5062817;28;20494;-80
2022/11/06 09:18:07;;;;;;;2.30;2.20;;;21.20;64.90;;;;;;5067225;28;20564;-80
2022/11/06 09:20:36;;;;;;;2.33;2.13;;;21.20;65.00;;;;;;5061363;28;20468;-79
2022/11/06 09:23:08;;;;;;;2.30;2.20;;;21.20;65.00;;;;;;5065845;28;20446;-80
2022/11/06 09:25:37;;;;;;;2.40;2.30;;;21.20;65.00;;;;;;5068032;28;20473;-80
2022/11/06 09:28:05;;;;;;;2.40;2.07;;;21.20;65.10;;;;;;5075577;28;20458;-80
2022/11/06 09:30:33;;;;;;;2.20;1.90;;;21.20;65.10;;;;;;5065963;28;20472;-80
2022/11/06 09:33:02;;;;;;;2.10;1.90;;;21.20;65.10;;;;;;5057969;28;20461;-80
2022/11/06 09:35:35;;;;;;;2.10;2.00;;;21.20;65.10;;;;;;5061626;28;20583;-80
2022/11/06 09:38:04;;;;;;;2.20;2.10;;;21.10;65.20;;;;;;5060085;28;20494;-79
2022/11/06 09:40:35;;;;;;;2.40;2.20;;;21.10;65.20;;;;;;5067543;28;20503;-80
2022/11/06 09:43:25;;;;;;;2.40;2.20;;;21.10;65.20;;;;;;5063626;28;20487;-80
2022/11/06 09:46:21;;;;;;;2.17;2.07;;;21.10;65.20;;;;;;5064005;28;20464;-80
2022/11/06 09:48:56;;;;;;;2.73;2.20;;;21.10;65.20;;;;;;5070951;28;20540;-80
2022/11/06 09:51:33;;;;;;;2.00;1.90;;;21.10;65.20;;;;;;5062936;28;20462;-80
2022/11/06 09:54:06;;;;;;;2.23;1.97;;;21.10;65.20;;;;;;5050094;28;20857;-80
2022/11/06 09:56:38;;;;;;;1.97;1.77;;;21.10;65.20;;;;;;5068574;28;20499;-79
2022/11/06 09:59:11;;;;;;;1.97;1.87;;;21.10;65.30;;;;;;5069099;28;20470;-79
2022/11/06 10:01:45;;;;;;;1.90;1.80;;;21.10;65.30;;;;;;5061053;28;20465;-79
2022/11/06 10:04:26;;;;;;;1.70;1.60;;;21.10;65.20;;;;;;5060294;28;20898;-80
2022/11/06 10:06:54;;;;;;;3.10;1.77;;;21.10;65.30;;;;;;5075601;28;20441;-78
2022/11/06 10:09:23;;;;;;;2.40;2.20;;;21.10;65.30;;;;;;5060115;28;20461;-79
2022/11/06 10:11:59;;;;;;;5.93;2.50;;;21.10;65.40;;;;;;5060046;28;20456;-79
2022/11/06 10:14:38;;;;;;;4.17;2.13;;;21.10;65.40;;;;;;5062910;28;20457;-79
2022/11/06 10:17:14;;;;;;;2.27;2.10;;;21.10;65.50;;;;;;5059779;28;20475;-78
2022/11/06 10:19:49;;;;;;;3.20;2.20;;;21.10;65.40;;;;;;5062198;28;20518;-78
2022/11/06 10:22:22;;;;;;;2.60;2.23;;;21.10;65.40;;;;;;5069087;28;20462;-80
2022/11/06 10:24:58;;;;;;;2.40;2.07;;;21.10;65.40;;;;;;5068513;28;20546;-78
2022/11/06 10:27:32;;;;;;;2.20;2.10;;;21.10;65.40;;;;;;5074379;28;20454;-81
2022/11/06 10:30:10;;;;;;;6.40;2.40;;;21.10;65.30;;;;;;5074286;28;20453;-80
2022/11/06 10:33:07;;;;;;;4.10;2.90;;;21.10;65.30;;;;;;5072993;28;20455;-79
2022/11/06 10:35:40;;;;;;;4.47;2.17;;;21.10;65.30;;;;;;5067111;28;20846;-80
2022/11/06 10:38:13;;;;;;;3.30;2.60;;;21.10;65.30;;;;;;5070800;28;20484;-81
2022/11/06 10:40:47;;;;;;;2.63;2.00;;;21.10;65.30;;;;;;5070158;28;20488;-79
2022/11/06 10:43:24;;;;;;;3.10;2.10;;;21.10;65.30;;;;;;5065157;28;20488;-80
2022/11/06 10:45:59;;;;;;;2.70;2.23;;;21.10;65.20;;;;;;5071688;28;20479;-80
2022/11/06 10:48:30;;;;;;;2.30;2.10;;;21.10;65.30;;;;;;5070271;28;20463;-83
2022/11/06 10:51:27;;;;;;;4.50;2.33;;;21.10;65.20;;;;;;5078712;28;20511;-80
2022/11/06 10:54:08;;;;;;;3.57;2.33;;;21.10;65.20;;;;;;5066361;28;20448;-81
2022/11/06 10:56:49;;;;;;;2.90;2.10;;;21.10;65.20;;;;;;5072199;28;20430;-80
2022/11/06 10:59:18;;;;;;;2.23;2.10;;;21.10;65.20;;;;;;5072160;28;20916;-81
2022/11/06 11:01:48;;;;;;;3.00;2.37;;;21.10;65.20;;;;;;5071836;28;20444;-81
2022/11/06 11:04:16;;;;;;;2.30;2.10;;;21.10;65.20;;;;;;5080173;28;20447;-80
2022/11/06 11:06:44;;;;;;;2.50;2.30;;;21.10;65.20;;;;;;5090683;28;20833;-81
2022/11/06 11:09:31;;;;;;;2.80;2.40;;;21.10;65.20;;;;;;5090928;28;20456;-81
2022/11/06 11:12:00;;;;;;;2.40;2.20;;;21.10;65.20;;;;;;5090731;28;20435;-80
2022/11/06 11:14:30;;;;;;;2.37;1.97;;;21.10;65.20;;;;;;5089264;28;20449;-81
2022/11/06 11:17:01;;;;;;;2.63;2.50;;;21.10;65.20;;;;;;5089055;28;20435;-80
2022/11/06 11:19:37;;;;;;;2.73;1.97;;;21.10;65.20;;;;;;5084957;28;20448;-82
2022/11/06 11:22:18;;;;;;;5.43;2.53;;;21.10;65.20;;;;;;5056007;28;20506;-81
2022/11/06 11:25:00;;;;;;;3.00;2.10;;;21.10;65.10;;;;;;5081853;28;20465;-81
2022/11/06 11:27:29;;;;;;;1.83;1.73;;;21.10;65.20;;;;;;5079165;28;20447;-80
2022/11/06 11:29:57;;;;;;;2.03;1.93;;;21.10;65.10;;;;;;5071533;28;20863;-81
2022/11/06 11:32:30;;;;;;;3.77;2.13;;;21.10;65.10;;;;;;5084425;28;20458;-80
2022/11/06 11:34:58;;;;;;;2.97;2.10;;;21.10;65.10;;;;;;5079035;28;20452;-80
2022/11/06 11:37:29;;;;;;;2.30;2.10;;;21.10;65.10;;;;;;5074844;28;20476;-80
2022/11/06 11:40:27;;;;;;;2.07;1.97;;;21.10;65.10;;;;;;5086194;28;20451;-80
2022/11/06 11:42:55;;;;;;;2.40;2.20;;;21.10;65.10;;;;;;5080461;28;20457;-81
2022/11/06 11:45:23;;;;;;;2.23;2.03;;;21.10;65.00;;;;;;5075315;28;20488;-80
2022/11/06 11:47:52;;;;;;;2.53;2.33;;;21.10;65.00;;;;;;5064995;28;20457;-80
2022/11/06 11:50:30;;;;;;;2.27;2.17;;;21.10;65.00;;;;;;5083967;28;20456;-81
2022/11/06 11:53:05;;;;;;;1.97;1.80;;;21.10;65.00;;;;;;5088265;28;20439;-80
2022/11/06 11:55:41;;;;;;;2.27;2.07;;;21.20;65.00;;;;;;5078049;28;20914;-80
2022/11/06 11:58:20;;;;;;;2.10;2.00;;;21.20;64.90;;;;;;5082055;28;20445;-80
2022/11/06 12:00:53;;;;;;;2.07;1.80;;;21.20;64.90;;;;;;5080575;28;20451;-81
2022/11/06 12:03:27;;;;;;;2.47;2.27;;;21.20;64.80;;;;;;5080967;28;20983;-80
2022/11/06 12:06:05;;;;;;;2.10;2.00;;;21.20;64.80;;;;;;5074950;28;20481;-81
2022/11/06 12:08:34;;;;;;;1.60;1.50;;;21.20;64.80;;;;;;5083724;28;20435;-80
2022/11/06 12:11:04;;;;;;;2.30;2.10;;;21.20;64.70;;;;;;5095569;28;20448;-80
2022/11/06 12:13:32;;;;;;;2.90;2.23;;;21.20;64.70;;;;;;5090285;28;20475;-79
2022/11/06 12:16:04;;;;;;;1.97;1.87;;;21.20;64.80;;;;;;5065811;28;20459;-81
2022/11/06 12:18:36;;;;;;;2.93;2.10;;;21.20;64.80;;;;;;5064822;28;20788;-80
2022/11/06 12:21:07;;;;;;;2.23;2.13;;;21.20;64.70;;;;;;5060831;28;20466;-80
2022/11/06 12:23:40;;;;;;;3.10;1.93;;;21.20;64.70;;;;;;5065854;28;20472;-82
2022/11/06 12:26:15;;;;;;;2.23;2.10;;;21.20;64.70;;;;;;5068197;28;20483;-80
2022/11/06 12:28:45;;;;;;;1.77;1.67;;;21.20;64.70;;;;;;5067207;28;20475;-81
2022/11/06 12:31:24;;;;;;;2.40;2.20;;;21.20;64.80;;;;;;5060026;28;20616;-83
2022/11/06 12:33:56;;;;;;;3.10;2.10;;;21.20;64.80;;;;;;5060675;28;20461;-81
2022/11/06 12:36:38;;;;;;;2.00;1.90;;;21.20;64.80;;;;;;5060046;28;20763;-80
2022/11/06 12:39:14;;;;;;;2.23;2.10;;;21.20;64.80;;;;;;5065298;28;20515;-81
2022/11/06 12:41:45;;;;;;;2.43;2.03;;;21.20;64.80;;;;;;5072589;28;20449;-81
2022/11/06 12:44:16;;;;;;;3.50;2.00;;;21.20;64.80;;;;;;5056629;28;21054;-80
2022/11/06 12:46:52;;;;;;;2.17;2.07;;;21.20;64.80;;;;;;5075024;28;20476;-78
2022/11/06 12:49:56;;;;;;;2.20;2.00;;;21.20;64.80;;;;;;5088131;28;20468;-82
2022/11/06 12:52:36;;;;;;;2.03;1.93;;;21.20;64.80;;;;;;5079786;28;20447;-79
2022/11/06 12:55:17;;;;;;;2.53;2.00;;;21.20;64.80;;;;;;5071892;28;20456;-81
2022/11/06 12:58:03;;;;;;;1.80;1.47;;;21.20;64.80;;;;;;5065986;28;20463;-81
2022/11/06 13:00:39;;;;;;;2.20;2.00;;;21.20;64.80;;;;;;5070579;28;20452;-81
2022/11/06 13:03:24;;;;;;;2.40;2.30;;;21.20;64.80;;;;;;5067824;28;20541;-81
2022/11/06 13:06:00;;;;;;;2.00;1.90;;;21.20;64.70;;;;;;5071391;28;20477;-81
2022/11/06 13:08:40;;;;;;;2.13;2.03;;;21.20;64.70;;;;;;5066340;28;20460;-80
2022/11/06 13:11:21;;;;;;;2.27;2.17;;;21.20;64.70;;;;;;5060873;28;20471;-81
2022/11/06 13:14:03;;;;;;;2.13;1.90;;;21.20;64.70;;;;;;5064292;28;20459;-81
2022/11/06 13:16:39;;;;;;;1.50;1.40;;;21.20;64.60;;;;;;5065817;28;20472;-80
2022/11/06 13:19:15;;;;;;;1.80;1.70;;;21.20;64.70;;;;;;5058286;28;20783;-81
2022/11/06 13:22:07;;;;;;;2.40;1.80;;;21.20;64.70;;;;;;5062736;28;20459;-81
2022/11/06 13:24:41;;;;;;;2.30;2.10;;;21.20;64.70;;;;;;5042884;28;20457;-80
2022/11/06 13:27:17;;;;;;;1.60;1.50;;;21.20;64.70;;;;;;5064014;28;20475;-81